Hopewell Township, New Jersey
Current Conditions -  °F | °C
As of 6:53 PM on Wednesday 22 Oct 2014 (Local Time) from KTTN Reporting Station
Moderate Rain Moderate Rain  
Wind Chill: 12°   Ceiling: 3200
Heat Index: 12°   Visibility: 7mi
Dew Point:   Wind: 13mph
Humidity: 83%   Direction: 10°N
Pressure: 29.83"   Gusts: NA
Location:  40.3975°N, 74.7746°W
Report Text: KTTN 222253Z 01011KT 7SM RA SCT026 OVC032 12/09 A2983 RMK AO2 SLP096 P0003 T01170089
Loading
Personal Weather Stations






























Interactive Weather Map
Tropical Storm Tracking
New forecast layout! Learn more

10-Day Weather Forecast

Advertisements
Track Severe Weather on mobile